Time;durP1;ratioP1;P1;durP2;ratioP2;P2;SDS_P1;SDS_P2;PMS_P1;PMS_P2;Temp;Humidity;BMP_temperature;BMP_pressure;BME280_temperature;BME280_humidity;BME280_pressure;Samples;Min_cycle;Max_cycle;Signal;HPM_P1;HPM_P2
2022/05/15 00:02:01;;;;;;;16.42;7.90;;;;;;;;;;5095041;28;20042;-60
2022/05/15 00:04:27;;;;;;;14.82;7.40;;;;;;;;;;5090898;28;20035;-60
2022/05/15 00:06:53;;;;;;;16.38;7.20;;;;;;;;;;5094748;28;20017;-60
2022/05/15 00:09:19;;;;;;;16.95;7.35;;;;;;;;;;5096045;28;20031;-60
2022/05/15 00:11:45;;;;;;;13.75;7.78;;;;;;;;;;5083166;28;20068;-59
2022/05/15 00:14:11;;;;;;;14.77;6.97;;;;;;;;;;5086885;28;20030;-60
2022/05/15 00:16:37;;;;;;;20.10;7.43;;;;;;;;;;5092921;28;20527;-60
2022/05/15 00:19:03;;;;;;;14.75;6.65;;;;;;;;;;5100928;28;20019;-59
2022/05/15 00:21:29;;;;;;;16.00;7.28;;;;;;;;;;5095213;28;20031;-59
2022/05/15 00:23:55;;;;;;;14.43;6.80;;;;;;;;;;5090871;28;20029;-59
2022/05/15 00:26:21;;;;;;;16.08;6.82;;;;;;;;;;5095752;28;20119;-60
2022/05/15 00:28:47;;;;;;;16.88;6.90;;;;;;;;;;5095752;28;20599;-59
2022/05/15 00:31:13;;;;;;;14.10;7.18;;;;;;;;;;5093977;28;20028;-59
2022/05/15 00:33:39;;;;;;;13.18;6.55;;;;;;;;;;5098771;28;20020;-59
2022/05/15 00:36:06;;;;;;;14.90;6.97;;;;;;;;;;5075035;28;20514;-59
2022/05/15 00:38:32;;;;;;;15.93;6.50;;;;;;;;;;5102206;28;20566;-59
2022/05/15 00:40:58;;;;;;;18.17;7.88;;;;;;;;;;5092481;28;20028;-59
2022/05/15 00:43:41;;;;;;;17.83;6.82;;;;;;;;;;5090417;28;20028;-59
2022/05/15 00:46:07;;;;;;;;;;;;;;;;;;5090314;28;20035;-59
2022/05/15 00:48:34;;;;;;;12.57;6.25;;;;;;;;;;5071278;28;19912;-59
2022/05/15 00:51:02;;;;;;;13.15;6.70;;;;;;;;;;5090680;28;20034;-59
2022/05/15 00:53:28;;;;;;;16.00;6.65;;;;;;;;;;5087202;28;20050;-59
2022/05/15 00:55:54;;;;;;;14.63;6.75;;;;;;;;;;5096122;28;20089;-59
2022/05/15 00:58:25;;;;;;;18.75;7.32;;;;;;;;;;5078974;28;20028;-59
2022/05/15 01:00:51;;;;;;;16.08;6.78;;;;;;;;;;5087007;28;20034;-59
2022/05/15 01:03:18;;;;;;;15.98;7.15;;;;;;;;;;5096710;28;20032;-60
2022/05/15 01:05:49;;;;;;;16.98;7.18;;;;;;;;;;5091321;28;20028;-59
2022/05/15 01:08:15;;;;;;;20.02;7.00;;;;;;;;;;5079914;28;20032;-59
2022/05/15 01:10:43;;;;;;;16.90;7.07;;;;;;;;;;5084503;28;20027;-60
2022/05/15 01:13:10;;;;;;;15.15;6.82;;;;;;;;;;5084354;28;20024;-59
2022/05/15 01:15:37;;;;;;;17.23;7.10;;;;;;;;;;5099507;28;20017;-59
2022/05/15 01:18:04;;;;;;;17.50;7.75;;;;;;;;;;5090580;28;20147;-60
2022/05/15 01:20:31;;;;;;;15.35;7.22;;;;;;;;;;5099167;28;20107;-59
2022/05/15 01:22:57;;;;;;;18.40;7.00;;;;;;;;;;5098399;28;20201;-59
2022/05/15 01:25:24;;;;;;;13.20;6.53;;;;;;;;;;5097882;28;20078;-59
2022/05/15 01:27:56;;;;;;;17.70;7.28;;;;;;;;;;5099302;28;20684;-59
2022/05/15 01:30:23;;;;;;;14.38;6.93;;;;;;;;;;5084128;28;20028;-59
2022/05/15 01:32:49;;;;;;;15.75;7.28;;;;;;;;;;5094688;28;20023;-59
2022/05/15 01:35:15;;;;;;;18.65;7.05;;;;;;;;;;5093113;28;20148;-59
2022/05/15 01:37:41;;;;;;;12.63;6.95;;;;;;;;;;5079652;28;20396;-59
2022/05/15 01:40:08;;;;;;;15.52;7.15;;;;;;;;;;5079119;28;20028;-59
2022/05/15 01:42:34;;;;;;;15.82;7.13;;;;;;;;;;5090267;28;20036;-59
2022/05/15 01:45:00;;;;;;;16.58;7.50;;;;;;;;;;5088122;28;20027;-59
2022/05/15 01:47:26;;;;;;;16.25;7.30;;;;;;;;;;5097154;28;20399;-59
2022/05/15 01:49:51;;;;;;;17.65;7.78;;;;;;;;;;5090159;28;20102;-60
2022/05/15 01:52:17;;;;;;;16.08;7.18;;;;;;;;;;5096011;28;20440;-59
2022/05/15 01:54:43;;;;;;;15.63;7.07;;;;;;;;;;5087729;28;20122;-59
2022/05/15 01:57:09;;;;;;;15.32;6.75;;;;;;;;;;5085965;28;20764;-59
2022/05/15 01:59:36;;;;;;;15.05;6.97;;;;;;;;;;5088416;28;20368;-59
2022/05/15 02:02:02;;;;;;;18.35;7.40;;;;;;;;;;5093089;27;20023;-59
2022/05/15 02:04:28;;;;;;;18.25;7.40;;;;;;;;;;5090228;28;20031;-59
2022/05/15 02:06:54;;;;;;;16.27;7.43;;;;;;;;;;5084020;27;20031;-59
2022/05/15 02:09:20;;;;;;;14.90;6.65;;;;;;;;;;5081583;28;20024;-59
2022/05/15 02:11:46;;;;;;;13.43;7.13;;;;;;;;;;5084220;28;20115;-59
2022/05/15 02:14:12;;;;;;;20.75;7.78;;;;;;;;;;5086842;28;20024;-59
2022/05/15 02:16:38;;;;;;;21.83;7.32;;;;;;;;;;5087193;28;20028;-59
2022/05/15 02:19:04;;;;;;;17.83;7.22;;;;;;;;;;5083139;28;20067;-59
2022/05/15 02:21:30;;;;;;;18.05;7.45;;;;;;;;;;5090771;28;20024;-59
2022/05/15 02:23:57;;;;;;;17.08;6.90;;;;;;;;;;5095671;28;20023;-59
2022/05/15 02:26:23;;;;;;;21.85;7.47;;;;;;;;;;5096280;28;20028;-59
2022/05/15 02:28:49;;;;;;;19.73;7.57;;;;;;;;;;5091334;28;20036;-59
2022/05/15 02:31:15;;;;;;;16.67;7.60;;;;;;;;;;5086761;28;20105;-59
2022/05/15 02:33:41;;;;;;;18.65;7.55;;;;;;;;;;5088176;28;20094;-59
2022/05/15 02:36:07;;;;;;;17.90;7.07;;;;;;;;;;5083941;28;20139;-59
2022/05/15 02:38:34;;;;;;;16.20;6.72;;;;;;;;;;5089551;28;20027;-59
2022/05/15 02:41:00;;;;;;;17.00;7.45;;;;;;;;;;5088432;28;20031;-59
2022/05/15 02:43:26;;;;;;;15.18;7.32;;;;;;;;;;5096706;28;20378;-59
2022/05/15 02:45:52;;;;;;;15.48;7.00;;;;;;;;;;5091823;28;20122;-59
2022/05/15 02:51:05;;;;;;;15.85;7.00;;;;;;;;;;5090563;28;20092;-59
2022/05/15 02:53:35;;;;;;;18.63;6.93;;;;;;;;;;5076316;28;20030;-58
2022/05/15 02:56:03;;;;;;;18.40;6.13;;;;;;;;;;5089083;28;20051;-59
2022/05/15 02:58:29;;;;;;;18.52;7.32;;;;;;;;;;5082232;28;20452;-59
2022/05/15 03:00:56;;;;;;;16.20;6.75;;;;;;;;;;5091183;28;20052;-59
2022/05/15 03:03:23;;;;;;;15.48;6.82;;;;;;;;;;5084207;28;20324;-59
2022/05/15 03:05:49;;;;;;;17.70;7.03;;;;;;;;;;5084482;28;20044;-59
2022/05/15 03:08:15;;;;;;;14.85;7.18;;;;;;;;;;5090645;28;20044;-59
2022/05/15 03:10:41;;;;;;;14.40;7.15;;;;;;;;;;5088762;28;20069;-59
2022/05/15 03:13:07;;;;;;;16.05;6.95;;;;;;;;;;5085814;28;20032;-59
2022/05/15 03:15:33;;;;;;;15.05;7.18;;;;;;;;;;5081443;28;20107;-59
2022/05/15 03:17:59;;;;;;;15.77;6.78;;;;;;;;;;5089744;28;20035;-59
2022/05/15 03:20:27;;;;;;;12.55;6.97;;;;;;;;;;5094603;28;20019;-59
2022/05/15 03:22:57;;;;;;;13.35;6.93;;;;;;;;;;5087054;28;20023;-60
2022/05/15 03:25:24;;;;;;;15.00;6.97;;;;;;;;;;5093815;28;20034;-59
2022/05/15 03:27:50;;;;;;;17.27;7.28;;;;;;;;;;5084048;28;20024;-59
2022/05/15 03:30:17;;;;;;;17.55;7.03;;;;;;;;;;5095219;28;20024;-60
2022/05/15 03:32:42;;;;;;;16.50;7.18;;;;;;;;;;5089071;28;20034;-59
2022/05/15 03:35:09;;;;;;;16.70;7.53;;;;;;;;;;5088914;28;20500;-60
2022/05/15 03:37:35;;;;;;;14.07;7.03;;;;;;;;;;5086299;28;20028;-59
2022/05/15 03:40:01;;;;;;;15.38;6.25;;;;;;;;;;5092320;28;20109;-59
2022/05/15 03:42:27;;;;;;;16.80;6.90;;;;;;;;;;5088348;28;20101;-59
2022/05/15 03:44:54;;;;;;;17.50;7.13;;;;;;;;;;5092904;28;20108;-59
2022/05/15 03:47:20;;;;;;;15.43;6.82;;;;;;;;;;5091540;28;20678;-59
2022/05/15 03:49:47;;;;;;;19.85;7.15;;;;;;;;;;5085337;28;20023;-59
2022/05/15 03:52:14;;;;;;;16.10;7.28;;;;;;;;;;5086986;28;20313;-59
2022/05/15 03:54:41;;;;;;;15.98;7.13;;;;;;;;;;5088534;28;20078;-59
2022/05/15 03:57:07;;;;;;;18.05;7.25;;;;;;;;;;5091198;28;20036;-59
2022/05/15 03:59:34;;;;;;;16.40;6.60;;;;;;;;;;5084342;28;20618;-59
2022/05/15 04:02:01;;;;;;;16.58;7.05;;;;;;;;;;5098135;28;20035;-59
2022/05/15 04:04:27;;;;;;;14.20;7.88;;;;;;;;;;5096079;28;20024;-59
2022/05/15 04:06:53;;;;;;;16.13;7.05;;;;;;;;;;5097974;28;20027;-59
2022/05/15 04:09:21;;;;;;;16.40;6.85;;;;;;;;;;5087504;28;20024;-59
2022/05/15 04:11:47;;;;;;;15.52;7.60;;;;;;;;;;5089531;28;20102;-59
2022/05/15 04:14:13;;;;;;;13.70;6.65;;;;;;;;;;5083171;28;20095;-59
2022/05/15 04:16:39;;;;;;;15.30;7.28;;;;;;;;;;5084359;28;20115;-59
2022/05/15 04:19:06;;;;;;;17.10;7.60;;;;;;;;;;5098051;28;20258;-59
2022/05/15 04:21:37;;;;;;;15.55;7.22;;;;;;;;;;5095271;28;20507;-59
2022/05/15 04:24:06;;;;;;;13.05;7.10;;;;;;;;;;5097577;28;20019;-58
2022/05/15 04:26:33;;;;;;;13.90;7.30;;;;;;;;;;5101919;28;20100;-59
2022/05/15 04:28:59;;;;;;;15.75;6.85;;;;;;;;;;5090003;28;20113;-59
2022/05/15 04:31:25;;;;;;;16.05;7.10;;;;;;;;;;5095002;28;22025;-59
2022/05/15 04:33:51;;;;;;;16.20;7.40;;;;;;;;;;5085309;28;20032;-59
2022/05/15 04:36:17;;;;;;;13.55;7.05;;;;;;;;;;5097412;28;20028;-59
2022/05/15 04:38:43;;;;;;;15.25;7.78;;;;;;;;;;5098249;28;20467;-59
2022/05/15 04:41:11;;;;;;;18.23;7.93;;;;;;;;;;5088642;28;20110;-59
2022/05/15 04:43:37;;;;;;;15.93;8.00;;;;;;;;;;5084249;28;20024;-60
2022/05/15 04:46:07;;;;;;;14.32;7.93;;;;;;;;;;5091334;28;20051;-59
2022/05/15 04:48:34;;;;;;;14.23;7.50;;;;;;;;;;5092329;28;20038;-59
2022/05/15 04:51:00;;;;;;;14.82;8.05;;;;;;;;;;5095747;28;20437;-59
2022/05/15 04:53:27;;;;;;;17.30;8.90;;;;;;;;;;5094871;28;20031;-59
2022/05/15 04:55:53;;;;;;;14.35;8.27;;;;;;;;;;5090753;28;20563;-59
2022/05/15 04:58:19;;;;;;;16.13;8.65;;;;;;;;;;5090007;28;20031;-59
2022/05/15 05:00:45;;;;;;;19.25;8.82;;;;;;;;;;5090263;28;20110;-59
2022/05/15 05:03:11;;;;;;;16.00;8.27;;;;;;;;;;5090373;28;20031;-60
2022/05/15 05:05:37;;;;;;;16.73;8.70;;;;;;;;;;5094048;28;20019;-61
2022/05/15 05:08:05;;;;;;;17.98;8.77;;;;;;;;;;5095485;28;20084;-60
2022/05/15 05:10:31;;;;;;;20.33;9.05;;;;;;;;;;5088694;28;20037;-61
2022/05/15 05:12:57;;;;;;;17.15;8.23;;;;;;;;;;5086189;28;20012;-61
2022/05/15 05:15:23;;;;;;;17.20;9.13;;;;;;;;;;5089122;28;20470;-61
2022/05/15 05:17:49;;;;;;;21.90;9.50;;;;;;;;;;5083785;28;20020;-61
2022/05/15 05:20:15;;;;;;;24.45;10.13;;;;;;;;;;5093983;28;20016;-61
2022/05/15 05:22:41;;;;;;;21.65;10.27;;;;;;;;;;5091141;28;20042;-61
2022/05/15 05:25:07;;;;;;;24.70;11.00;;;;;;;;;;5089620;28;20023;-60
2022/05/15 05:27:34;;;;;;;20.60;10.00;;;;;;;;;;5092500;28;20032;-61
2022/05/15 05:30:00;;;;;;;22.77;10.65;;;;;;;;;;5095373;28;20030;-61
2022/05/15 05:32:26;;;;;;;19.60;9.82;;;;;;;;;;5095152;28;20118;-61
2022/05/15 05:34:52;;;;;;;19.92;9.45;;;;;;;;;;5093100;28;20007;-61
2022/05/15 05:37:18;;;;;;;23.92;10.48;;;;;;;;;;5095599;28;20028;-61
2022/05/15 05:39:45;;;;;;;22.40;10.88;;;;;;;;;;5087227;28;20482;-61
2022/05/15 05:42:11;;;;;;;23.00;10.80;;;;;;;;;;5087972;28;20103;-61
2022/05/15 05:44:37;;;;;;;19.42;10.02;;;;;;;;;;5088105;28;20016;-61
2022/05/15 05:47:03;;;;;;;20.88;10.45;;;;;;;;;;5079378;28;20044;-61
2022/05/15 05:49:29;;;;;;;22.63;10.57;;;;;;;;;;5088531;28;20043;-61
2022/05/15 05:51:55;;;;;;;24.58;10.82;;;;;;;;;;5094240;28;20102;-61
2022/05/15 05:54:21;;;;;;;19.83;9.68;;;;;;;;;;5097526;28;20462;-61
2022/05/15 05:56:47;;;;;;;22.50;10.35;;;;;;;;;;5079677;28;20017;-61
2022/05/15 05:59:13;;;;;;;23.20;11.52;;;;;;;;;;5084475;28;20020;-61
2022/05/15 06:01:42;;;;;;;27.00;10.32;;;;;;;;;;5093347;28;20058;-61
2022/05/15 06:06:53;;;;;;;24.27;9.98;;;;;;;;;;5088598;28;20089;-61
2022/05/15 06:09:19;;;;;;;23.30;10.00;;;;;;;;;;5089300;28;20028;-61
2022/05/15 06:11:45;;;;;;;24.58;10.38;;;;;;;;;;5083076;28;20526;-62
2022/05/15 06:14:11;;;;;;;20.27;9.27;;;;;;;;;;5080683;28;20020;-61
2022/05/15 06:16:37;;;;;;;21.77;10.15;;;;;;;;;;5089707;28;20153;-62
2022/05/15 06:19:03;;;;;;;22.52;10.25;;;;;;;;;;5080555;28;20017;-61
2022/05/15 06:21:29;;;;;;;22.73;10.20;;;;;;;;;;5090853;28;20571;-62
2022/05/15 06:23:55;;;;;;;22.35;9.40;;;;;;;;;;5085107;28;20032;-62
2022/05/15 06:26:21;;;;;;;20.08;9.95;;;;;;;;;;5088365;28;20364;-61
2022/05/15 06:28:47;;;;;;;20.38;9.82;;;;;;;;;;5088391;28;20495;-61
2022/05/15 06:31:12;;;;;;;20.42;9.80;;;;;;;;;;5089485;28;20462;-62
2022/05/15 06:33:38;;;;;;;17.85;9.55;;;;;;;;;;5092733;28;20028;-62
2022/05/15 06:36:05;;;;;;;18.80;7.78;;;;;;;;;;5100492;28;20049;-62
2022/05/15 06:38:31;;;;;;;15.70;7.50;;;;;;;;;;5095361;28;20096;-62
2022/05/15 06:40:57;;;;;;;14.00;6.88;;;;;;;;;;5076071;28;20382;-62
2022/05/15 06:43:23;;;;;;;15.80;6.88;;;;;;;;;;5089555;28;20380;-62
2022/05/15 06:45:49;;;;;;;16.77;7.47;;;;;;;;;;5085992;28;20024;-62
2022/05/15 06:48:15;;;;;;;18.60;7.45;;;;;;;;;;5095580;28;20115;-62
2022/05/15 06:50:41;;;;;;;19.08;7.63;;;;;;;;;;5097040;28;20034;-62
2022/05/15 06:53:11;;;;;;;22.45;9.05;;;;;;;;;;5097515;28;20043;-62
2022/05/15 06:57:28;;;;;;;17.20;8.40;;;;;;;;;;5094050;28;20460;-62
2022/05/15 06:58:23;;;;;;;21.83;10.50;;;;;;;;;;5078398;28;20415;-61
2022/05/15 07:00:49;;;;;;;23.25;13.35;;;;;;;;;;5083807;28;20020;-62
2022/05/15 07:03:16;;;;;;;20.08;7.45;;;;;;;;;;5095826;28;20019;-62
2022/05/15 07:05:42;;;;;;;14.88;7.95;;;;;;;;;;5092687;28;20028;-62
2022/05/15 07:08:10;;;;;;;17.42;6.75;;;;;;;;;;5101743;28;20069;-62
2022/05/15 07:10:36;;;;;;;14.90;5.75;;;;;;;;;;5093944;28;20024;-62
2022/05/15 07:13:02;;;;;;;14.40;5.10;;;;;;;;;;5082845;28;20494;-62
2022/05/15 07:15:29;;;;;;;14.95;5.10;;;;;;;;;;5086059;28;20103;-61
2022/05/15 07:17:55;;;;;;;13.70;4.90;;;;;;;;;;5080824;28;20519;-62
2022/05/15 07:20:21;;;;;;;11.93;5.25;;;;;;;;;;5093971;28;20012;-63
2022/05/15 07:22:47;;;;;;;14.50;5.43;;;;;;;;;;5099844;28;20398;-62
2022/05/15 07:25:13;;;;;;;15.48;4.95;;;;;;;;;;5086526;28;20026;-62
2022/05/15 07:27:39;;;;;;;16.17;5.03;;;;;;;;;;5085086;28;20519;-62
2022/05/15 07:30:06;;;;;;;14.23;5.60;;;;;;;;;;5082113;28;20033;-63
2022/05/15 07:32:32;;;;;;;14.98;5.20;;;;;;;;;;5075410;28;20439;-63
2022/05/15 07:34:57;;;;;;;11.18;5.30;;;;;;;;;;5078000;28;20029;-62
2022/05/15 07:37:23;;;;;;;13.68;4.82;;;;;;;;;;5095106;28;20384;-62
2022/05/15 07:39:49;;;;;;;15.20;6.50;;;;;;;;;;5091868;28;20020;-63
2022/05/15 07:42:15;;;;;;;18.65;7.68;;;;;;;;;;5090878;28;20028;-62
2022/05/15 07:44:41;;;;;;;16.80;7.22;;;;;;;;;;5097340;28;20046;-62
2022/05/15 07:47:08;;;;;;;17.88;7.32;;;;;;;;;;5089386;28;20093;-62
2022/05/15 07:49:34;;;;;;;13.45;7.03;;;;;;;;;;5102404;28;20028;-62
2022/05/15 07:52:00;;;;;;;21.40;8.25;;;;;;;;;;5083673;28;20031;-62
2022/05/15 07:54:26;;;;;;;23.13;9.77;;;;;;;;;;5093972;28;20029;-63
2022/05/15 07:56:53;;;;;;;28.10;9.68;;;;;;;;;;5089125;28;20022;-62
2022/05/15 07:59:19;;;;;;;22.55;10.20;;;;;;;;;;5089991;28;20141;-62
2022/05/15 08:01:45;;;;;;;28.30;10.50;;;;;;;;;;5090469;28;20479;-62
2022/05/15 08:04:11;;;;;;;27.63;11.73;;;;;;;;;;5077055;28;20031;-63
2022/05/15 08:09:22;;;;;;;25.98;11.10;;;;;;;;;;5094053;28;20043;-64
2022/05/15 08:11:48;;;;;;;26.65;10.77;;;;;;;;;;5082009;28;20086;-64
2022/05/15 08:14:14;;;;;;;22.95;9.30;;;;;;;;;;5096653;28;20491;-64
2022/05/15 08:16:40;;;;;;;18.65;8.07;;;;;;;;;;5093139;28;20154;-64
2022/05/15 08:24:38;;;;;;;13.25;5.40;;;;;;;;;;5081072;28;20035;-63
2022/05/15 08:27:04;;;;;;;12.43;5.22;;;;;;;;;;5077590;28;20035;-63
2022/05/15 08:29:30;;;;;;;15.63;5.32;;;;;;;;;;5086016;28;20415;-64
2022/05/15 08:31:56;;;;;;;17.58;5.35;;;;;;;;;;5082633;28;20040;-62
2022/05/15 08:34:22;;;;;;;14.55;5.38;;;;;;;;;;5094396;28;20016;-63
2022/05/15 08:36:49;;;;;;;13.75;5.28;;;;;;;;;;5098023;28;20026;-63
2022/05/15 08:39:15;;;;;;;16.70;5.40;;;;;;;;;;5093164;28;20024;-63
2022/05/15 08:41:41;;;;;;;15.75;4.68;;;;;;;;;;5087993;28;20847;-62
2022/05/15 08:44:12;;;;;;;13.15;4.38;;;;;;;;;;5091813;28;20766;-63
2022/05/15 08:46:39;;;;;;;13.63;4.00;;;;;;;;;;5084957;28;20020;-62
2022/05/15 08:49:21;;;;;;;13.23;4.20;;;;;;;;;;5093799;28;20050;-62
2022/05/15 08:51:53;;;;;;;13.98;4.10;;;;;;;;;;5099226;28;20035;-63
2022/05/15 08:54:19;;;;;;;10.50;4.47;;;;;;;;;;5082869;28;20509;-61
2022/05/15 08:56:47;;;;;;;16.98;5.57;;;;;;;;;;5085951;28;20024;-61
2022/05/15 08:59:32;;;;;;;12.05;4.40;;;;;;;;;;5078058;28;20056;-63
2022/05/15 09:01:59;;;;;;;15.98;3.80;;;;;;;;;;5081952;28;20058;-62
2022/05/15 09:04:25;;;;;;;14.50;4.13;;;;;;;;;;5086879;28;20055;-62
2022/05/15 09:06:56;;;;;;;8.88;3.75;;;;;;;;;;5080299;28;20027;-62
2022/05/15 09:09:25;;;;;;;13.18;3.50;;;;;;;;;;5088831;28;20162;-62
2022/05/15 09:11:56;;;;;;;13.00;4.22;;;;;;;;;;5093200;28;20019;-62
2022/05/15 09:14:42;;;;;;;12.18;3.80;;;;;;;;;;5090193;28;20412;-62
2022/05/15 09:17:15;;;;;;;11.32;2.90;;;;;;;;;;5095441;28;20495;-62
2022/05/15 09:19:41;;;;;;;11.40;3.00;;;;;;;;;;5082701;28;20013;-62
2022/05/15 09:22:08;;;;;;;10.98;3.22;;;;;;;;;;5090251;28;20032;-63
2022/05/15 09:24:38;;;;;;;13.73;2.75;;;;;;;;;;5095292;28;20454;-62
2022/05/15 09:27:11;;;;;;;8.57;2.38;;;;;;;;;;5087175;28;20047;-62
2022/05/15 09:29:37;;;;;;;;;;;;;;;;;;5087638;28;20024;-62
2022/05/15 09:32:06;;;;;;;9.40;2.63;;;;;;;;;;5101141;28;19918;-63
2022/05/15 09:34:35;;;;;;;11.57;2.83;;;;;;;;;;5093367;28;20016;-62
2022/05/15 09:39:47;;;;;;;9.70;3.25;;;;;;;;;;5095701;28;20050;-62
2022/05/15 09:45:19;;;;;;;11.15;2.70;;;;;;;;;;5090475;28;20062;-62
2022/05/15 09:47:46;;;;;;;9.02;2.88;;;;;;;;;;5093076;28;20038;-62
2022/05/15 09:50:31;;;;;;;14.50;3.78;;;;;;;;;;5093420;28;20116;-63
2022/05/15 09:52:58;;;;;;;12.90;3.75;;;;;;;;;;5094063;28;20060;-62
2022/05/15 09:55:25;;;;;;;11.80;3.78;;;;;;;;;;5097824;28;20506;-63
2022/05/15 09:57:56;;;;;;;12.43;3.53;;;;;;;;;;5092780;28;20027;-62
2022/05/15 10:00:23;;;;;;;13.20;3.47;;;;;;;;;;5090243;28;20142;-62
2022/05/15 10:02:51;;;;;;;12.85;3.80;;;;;;;;;;5095445;28;20065;-63
2022/05/15 10:05:17;;;;;;;8.98;3.15;;;;;;;;;;5100861;28;20093;-62
2022/05/15 10:07:50;;;;;;;12.30;3.20;;;;;;;;;;5100473;28;20712;-62
2022/05/15 10:10:31;;;;;;;13.48;3.92;;;;;;;;;;5085395;28;20029;-62
2022/05/15 10:12:59;;;;;;;10.85;3.47;;;;;;;;;;5087567;28;20093;-63
2022/05/15 10:15:26;;;;;;;13.63;3.97;;;;;;;;;;5077616;28;20024;-62
2022/05/15 10:17:54;;;;;;;10.27;3.60;;;;;;;;;;5093745;28;20463;-62
2022/05/15 10:20:23;;;;;;;10.25;3.42;;;;;;;;;;5089422;28;20156;-63
2022/05/15 10:22:59;;;;;;;14.57;4.47;;;;;;;;;;5096683;28;20042;-63
2022/05/15 10:25:37;;;;;;;9.43;3.97;;;;;;;;;;5087322;28;20019;-62
2022/05/15 10:28:06;;;;;;;13.00;4.35;;;;;;;;;;5092328;28;20108;-63
2022/05/15 10:30:34;;;;;;;13.15;4.22;;;;;;;;;;5095619;28;20032;-62
2022/05/15 10:33:06;;;;;;;8.43;3.03;;;;;;;;;;5108198;28;20495;-62
2022/05/15 10:35:41;;;;;;;13.80;4.07;;;;;;;;;;5098150;28;20019;-63
2022/05/15 10:38:18;;;;;;;8.48;2.80;;;;;;;;;;5099659;28;20023;-62
2022/05/15 10:40:47;;;;;;;8.13;2.97;;;;;;;;;;5101835;28;20064;-63
2022/05/15 10:43:35;;;;;;;13.95;3.53;;;;;;;;;;5096253;28;20544;-63
2022/05/15 10:46:10;;;;;;;9.93;2.97;;;;;;;;;;5089231;28;20384;-62
2022/05/15 10:48:59;;;;;;;8.52;3.15;;;;;;;;;;5094672;28;20020;-63
2022/05/15 10:51:29;;;;;;;10.75;3.00;;;;;;;;;;5100306;28;20027;-62
2022/05/15 10:57:24;;;;;;;10.50;3.20;;;;;;;;;;5087109;28;20035;-63
2022/05/15 10:59:56;;;;;;;13.18;3.00;;;;;;;;;;5092491;28;20024;-63
2022/05/15 11:02:41;;;;;;;13.90;3.08;;;;;;;;;;5087725;28;20028;-63
2022/05/15 11:05:26;;;;;;;12.35;2.97;;;;;;;;;;5096341;28;20027;-63
2022/05/15 11:08:04;;;;;;;10.77;2.72;;;;;;;;;;5095411;28;20012;-63
2022/05/15 11:10:30;;;;;;;8.30;2.67;;;;;;;;;;5084627;28;20119;-63
2022/05/15 11:13:04;;;;;;;7.43;2.53;;;;;;;;;;5092297;28;20106;-63
2022/05/15 11:15:30;;;;;;;9.52;2.78;;;;;;;;;;5080745;28;20062;-62
2022/05/15 11:18:15;;;;;;;11.38;3.33;;;;;;;;;;5096476;28;20223;-63
2022/05/15 11:20:45;;;;;;;9.52;3.10;;;;;;;;;;5094584;28;20028;-63
2022/05/15 11:23:25;;;;;;;8.75;2.63;;;;;;;;;;5101270;28;20023;-62
2022/05/15 11:25:53;;;;;;;10.75;3.08;;;;;;;;;;5100766;28;20035;-63
2022/05/15 11:28:35;;;;;;;8.65;3.13;;;;;;;;;;5093492;28;20383;-63
2022/05/15 11:31:09;;;;;;;10.35;3.13;;;;;;;;;;5095571;28;20031;-63
2022/05/15 11:33:55;;;;;;;9.70;3.00;;;;;;;;;;5093125;28;20027;-63
2022/05/15 11:36:29;;;;;;;10.90;3.15;;;;;;;;;;5099342;28;20024;-63
2022/05/15 11:39:01;;;;;;;7.13;2.70;;;;;;;;;;5099067;28;20358;-62
2022/05/15 11:41:39;;;;;;;9.00;2.85;;;;;;;;;;5097061;28;20035;-63
2022/05/15 11:44:12;;;;;;;8.82;2.65;;;;;;;;;;5105075;28;20031;-63
2022/05/15 11:46:47;;;;;;;12.52;3.45;;;;;;;;;;5106440;28;20119;-63
2022/05/15 11:49:26;;;;;;;8.55;2.97;;;;;;;;;;5097464;28;20008;-62
2022/05/15 11:52:13;;;;;;;8.43;2.67;;;;;;;;;;5094527;27;20037;-63
2022/05/15 11:54:41;;;;;;;10.90;3.08;;;;;;;;;;5094939;28;20020;-63
2022/05/15 11:57:09;;;;;;;7.85;2.50;;;;;;;;;;5101496;28;20035;-63
2022/05/15 11:59:44;;;;;;;12.23;3.28;;;;;;;;;;5100394;28;20022;-63
2022/05/15 12:02:33;;;;;;;11.57;2.92;;;;;;;;;;5096068;28;20532;-63
2022/05/15 12:05:01;;;;;;;9.18;2.72;;;;;;;;;;5096480;28;20030;-63
2022/05/15 12:07:27;;;;;;;12.13;2.83;;;;;;;;;;5106172;28;20016;-63
2022/05/15 12:09:53;;;;;;;8.13;2.58;;;;;;;;;;5094486;28;20028;-63
2022/05/15 12:12:23;;;;;;;4.88;2.38;;;;;;;;;;5086465;28;20035;-62
2022/05/15 12:15:09;;;;;;;8.90;2.17;;;;;;;;;;5093091;28;20581;-63
2022/05/15 12:17:38;;;;;;;10.30;2.60;;;;;;;;;;5094456;28;20034;-63
2022/05/15 12:20:10;;;;;;;6.35;2.70;;;;;;;;;;5088970;28;20026;-63
2022/05/15 12:22:37;;;;;;;9.35;2.70;;;;;;;;;;5097349;28;20055;-63
2022/05/15 12:25:09;;;;;;;7.82;2.80;;;;;;;;;;5089659;28;20111;-63
2022/05/15 12:27:40;;;;;;;8.52;2.92;;;;;;;;;;5095191;28;20046;-63
2022/05/15 12:30:15;;;;;;;6.60;2.38;;;;;;;;;;5089954;28;20024;-63
2022/05/15 12:32:46;;;;;;;9.52;2.80;;;;;;;;;;5097325;28;20026;-63
2022/05/15 12:35:14;;;;;;;8.25;2.58;;;;;;;;;;5083429;28;20050;-63
2022/05/15 12:38:03;;;;;;;9.40;2.30;;;;;;;;;;5106933;28;20023;-63
2022/05/15 12:40:33;;;;;;;7.57;2.40;;;;;;;;;;5100095;28;20659;-63
2022/05/15 12:43:00;;;;;;;6.15;2.50;;;;;;;;;;5101348;28;20047;-63
2022/05/15 12:45:26;;;;;;;8.05;2.70;;;;;;;;;;5097199;28;20069;-63
2022/05/15 12:48:05;;;;;;;12.02;2.55;;;;;;;;;;5093827;28;20442;-63
2022/05/15 12:50:31;;;;;;;7.60;2.70;;;;;;;;;;5094555;28;20024;-63
2022/05/15 12:52:58;;;;;;;7.18;2.22;;;;;;;;;;5099960;28;20031;-63
2022/05/15 12:55:30;;;;;;;6.25;2.55;;;;;;;;;;5092891;28;20422;-63
2022/05/15 12:57:57;;;;;;;7.28;2.80;;;;;;;;;;5099457;28;20046;-63
2022/05/15 13:00:35;;;;;;;6.18;2.65;;;;;;;;;;5095806;28;20519;-63
2022/05/15 13:03:12;;;;;;;6.53;2.42;;;;;;;;;;5090935;28;20019;-63
2022/05/15 13:05:50;;;;;;;8.85;2.72;;;;;;;;;;5097362;28;20386;-63
2022/05/15 13:08:16;;;;;;;7.57;2.97;;;;;;;;;;5091210;28;20050;-63
2022/05/15 13:10:50;;;;;;;5.60;2.47;;;;;;;;;;5084264;28;20028;-63
2022/05/15 13:13:16;;;;;;;8.15;2.55;;;;;;;;;;5089698;28;20027;-63
2022/05/15 13:15:45;;;;;;;7.80;2.33;;;;;;;;;;5085102;28;20028;-63
2022/05/15 13:18:11;;;;;;;5.82;2.42;;;;;;;;;;5095788;28;20024;-63
2022/05/15 13:20:39;;;;;;;10.23;2.30;;;;;;;;;;5098029;28;20043;-63
2022/05/15 13:23:06;;;;;;;9.48;2.58;;;;;;;;;;5099723;28;20019;-63
2022/05/15 13:25:34;;;;;;;6.78;2.33;;;;;;;;;;5101722;28;20705;-63
2022/05/15 13:28:01;;;;;;;6.35;2.33;;;;;;;;;;5102272;28;20680;-63
2022/05/15 13:30:30;;;;;;;4.30;2.20;;;;;;;;;;5097785;27;20383;-63
2022/05/15 13:33:04;;;;;;;9.70;2.55;;;;;;;;;;5103788;27;20031;-63
2022/05/15 13:35:35;;;;;;;10.07;3.00;;;;;;;;;;5092465;28;20028;-63
2022/05/15 13:38:13;;;;;;;7.47;2.38;;;;;;;;;;5102025;28;20008;-63
2022/05/15 13:43:31;;;;;;;5.82;2.63;;;;;;;;;;5095074;28;20031;-62
2022/05/15 13:46:05;;;;;;;6.97;2.35;;;;;;;;;;5094092;28;20028;-63
2022/05/15 13:48:50;;;;;;;8.00;2.70;;;;;;;;;;5103388;28;20023;-63
2022/05/15 13:51:37;;;;;;;9.18;2.72;;;;;;;;;;5093869;28;20031;-63
2022/05/15 13:54:28;;;;;;;8.52;3.00;;;;;;;;;;5089692;28;20050;-62
2022/05/15 13:57:00;;;;;;;7.20;2.35;;;;;;;;;;5085758;28;20139;-63
2022/05/15 13:59:46;;;;;;;7.20;2.22;;;;;;;;;;5083096;28;20768;-63
2022/05/15 14:02:12;;;;;;;10.40;2.70;;;;;;;;;;5078408;28;20116;-63
2022/05/15 14:04:39;;;;;;;5.85;2.20;;;;;;;;;;5091269;28;20518;-63
2022/05/15 14:07:06;;;;;;;6.82;2.25;;;;;;;;;;5094652;28;20024;-63
2022/05/15 14:09:46;;;;;;;9.30;2.63;;;;;;;;;;5093197;28;20034;-63
2022/05/15 14:12:14;;;;;;;6.90;2.47;;;;;;;;;;5071651;28;20036;-63
2022/05/15 14:14:44;;;;;;;7.63;2.45;;;;;;;;;;5087650;28;20039;-63
2022/05/15 14:17:11;;;;;;;9.73;2.40;;;;;;;;;;5081998;28;20098;-63
2022/05/15 14:19:54;;;;;;;13.00;7.38;;;;;;;;;;5092820;28;20050;-63
2022/05/15 14:22:21;;;;;;;7.18;2.60;;;;;;;;;;5086913;28;20024;-62
2022/05/15 14:24:47;;;;;;;6.43;2.70;;;;;;;;;;5091353;28;20028;-61
2022/05/15 14:27:13;;;;;;;8.30;2.45;;;;;;;;;;5094428;28;20506;-62
2022/05/15 14:29:40;;;;;;;6.10;2.30;;;;;;;;;;5092479;28;20475;-62
2022/05/15 14:32:07;;;;;;;6.78;2.67;;;;;;;;;;5089539;28;20020;-62
2022/05/15 14:34:33;;;;;;;5.55;2.20;;;;;;;;;;5085852;28;20036;-61
2022/05/15 14:37:00;;;;;;;7.88;2.45;;;;;;;;;;5096929;28;20044;-61
2022/05/15 14:39:26;;;;;;;5.65;2.30;;;;;;;;;;5094830;28;20374;-61
2022/05/15 14:41:52;;;;;;;7.53;2.90;;;;;;;;;;5100339;28;20073;-61
2022/05/15 14:44:18;;;;;;;8.32;3.53;;;;;;;;;;5081457;28;20027;-62
2022/05/15 14:46:45;;;;;;;9.23;2.60;;;;;;;;;;5098637;28;20030;-62
2022/05/15 14:49:11;;;;;;;5.88;2.40;;;;;;;;;;5099342;28;20084;-62
2022/05/15 14:51:40;;;;;;;7.43;2.33;;;;;;;;;;5095600;28;20468;-61
2022/05/15 14:54:06;;;;;;;8.18;2.67;;;;;;;;;;5093906;28;20049;-61
2022/05/15 14:56:34;;;;;;;7.20;2.45;;;;;;;;;;5099316;28;20019;-62
2022/05/15 14:59:02;;;;;;;7.20;2.30;;;;;;;;;;5093821;28;20059;-61
2022/05/15 15:01:29;;;;;;;6.82;2.47;;;;;;;;;;5089860;28;20023;-62
2022/05/15 15:03:55;;;;;;;6.65;2.58;;;;;;;;;;5089355;28;20103;-62
2022/05/15 15:06:21;;;;;;;8.35;2.55;;;;;;;;;;5091337;28;20115;-61
2022/05/15 15:08:47;;;;;;;4.75;1.98;;;;;;;;;;5088936;28;20553;-62